sensor_id;sensor_type;location;lat;lon;timestamp;pressure;altitude;pressure_sealevel;temperature;humidity
73063;BME280;61230;46.328;19.972;2023-05-21T00:00:31;100600.16;;;15.14;100.00
73063;BME280;61230;46.328;19.972;2023-05-21T00:02:58;100600.66;;;15.10;100.00
73063;BME280;61230;46.328;19.972;2023-05-21T00:05:26;100598.69;;;15.12;100.00
73063;BME280;61230;46.328;19.972;2023-05-21T00:07:54;100566.69;;;14.81;100.00
73063;BME280;61230;46.328;19.972;2023-05-21T00:10:22;100612.72;;;15.04;100.00
73063;BME280;61230;46.328;19.972;2023-05-21T00:12:49;100602.81;;;14.98;100.00
73063;BME280;61230;46.328;19.972;2023-05-21T00:15:17;100609.09;;;14.97;100.00
73063;BME280;61230;46.328;19.972;2023-05-21T00:17:45;100609.75;;;14.99;100.00
73063;BME280;61230;46.328;19.972;2023-05-21T00:20:12;100615.38;;;15.04;100.00
73063;BME280;61230;46.328;19.972;2023-05-21T00:22:40;100602.97;;;14.96;100.00
73063;BME280;61230;46.328;19.972;2023-05-21T00:25:09;100617.56;;;15.01;100.00
73063;BME280;61230;46.328;19.972;2023-05-21T00:27:38;100608.78;;;15.00;100.00
73063;BME280;61230;46.328;19.972;2023-05-21T00:30:06;100565.16;;;14.70;100.00
73063;BME280;61230;46.328;19.972;2023-05-21T00:32:34;100557.91;;;14.72;100.00
73063;BME280;61230;46.328;19.972;2023-05-21T00:35:01;100594.88;;;14.98;100.00
73063;BME280;61230;46.328;19.972;2023-05-21T00:37:29;100553.59;;;14.71;100.00
73063;BME280;61230;46.328;19.972;2023-05-21T00:40:00;100552.63;;;14.72;100.00
73063;BME280;61230;46.328;19.972;2023-05-21T00:42:29;100592.22;;;14.98;100.00
73063;BME280;61230;46.328;19.972;2023-05-21T00:44:57;100542.69;;;14.74;100.00
73063;BME280;61230;46.328;19.972;2023-05-21T00:47:25;100587.91;;;14.97;100.00
73063;BME280;61230;46.328;19.972;2023-05-21T00:49:56;100581.44;;;15.00;100.00
73063;BME280;61230;46.328;19.972;2023-05-21T00:52:24;100576.31;;;14.98;100.00
73063;BME280;61230;46.328;19.972;2023-05-21T00:54:53;100579.63;;;14.92;100.00
73063;BME280;61230;46.328;19.972;2023-05-21T00:57:22;100577.13;;;14.90;100.00
73063;BME280;61230;46.328;19.972;2023-05-21T00:59:52;100572.31;;;14.86;100.00
73063;BME280;61230;46.328;19.972;2023-05-21T01:02:20;100575.31;;;14.83;100.00
73063;BME280;61230;46.328;19.972;2023-05-21T01:04:53;100572.31;;;14.86;100.00
73063;BME280;61230;46.328;19.972;2023-05-21T01:07:21;100525.75;;;14.51;100.00
73063;BME280;61230;46.328;19.972;2023-05-21T01:09:49;100570.97;;;14.74;100.00
73063;BME280;61230;46.328;19.972;2023-05-21T01:12:18;100569.66;;;14.70;100.00
73063;BME280;61230;46.328;19.972;2023-05-21T01:14:47;100556.56;;;14.68;100.00
73063;BME280;61230;46.328;19.972;2023-05-21T01:17:16;100551.78;;;14.64;100.00
73063;BME280;61230;46.328;19.972;2023-05-21T01:19:45;100549.13;;;14.64;100.00
73063;BME280;61230;46.328;19.972;2023-05-21T01:22:14;100550.28;;;14.61;100.00
73063;BME280;61230;46.328;19.972;2023-05-21T01:24:44;100563.69;;;14.60;100.00
73063;BME280;61230;46.328;19.972;2023-05-21T01:27:14;100548.13;;;14.57;100.00
73063;BME280;61230;46.328;19.972;2023-05-21T01:29:42;100509.81;;;14.27;100.00
73063;BME280;61230;46.328;19.972;2023-05-21T01:35:03;100551.41;;;14.51;100.00
73063;BME280;61230;46.328;19.972;2023-05-21T01:37:53;100534.94;;;14.31;100.00
73063;BME280;61230;46.328;19.972;2023-05-21T01:42:58;100504.94;;;13.98;100.00
73063;BME280;61230;46.328;19.972;2023-05-21T01:45:30;100556.91;;;14.15;100.00
73063;BME280;61230;46.328;19.972;2023-05-21T01:47:58;100556.38;;;14.04;100.00
73063;BME280;61230;46.328;19.972;2023-05-21T01:50:27;100557.97;;;13.97;100.00
73063;BME280;61230;46.328;19.972;2023-05-21T01:52:55;100553.28;;;13.82;100.00
73063;BME280;61230;46.328;19.972;2023-05-21T01:55:25;100544.69;;;13.80;100.00
73063;BME280;61230;46.328;19.972;2023-05-21T01:57:54;100547.03;;;13.83;100.00
73063;BME280;61230;46.328;19.972;2023-05-21T02:00:24;100541.75;;;13.83;100.00
73063;BME280;61230;46.328;19.972;2023-05-21T02:02:53;100539.06;;;13.75;100.00
73063;BME280;61230;46.328;19.972;2023-05-21T02:05:21;100539.13;;;13.58;100.00
73063;BME280;61230;46.328;19.972;2023-05-21T02:07:49;100532.88;;;13.59;100.00
73063;BME280;61230;46.328;19.972;2023-05-21T02:10:18;100489.41;;;13.28;100.00
73063;BME280;61230;46.328;19.972;2023-05-21T02:12:46;100525.03;;;13.49;100.00
73063;BME280;61230;46.328;19.972;2023-05-21T02:15:13;100492.00;;;13.19;100.00
73063;BME280;61230;46.328;19.972;2023-05-21T02:17:45;100538.78;;;13.53;100.00
73063;BME280;61230;46.328;19.972;2023-05-21T02:20:13;100539.75;;;13.52;100.00
73063;BME280;61230;46.328;19.972;2023-05-21T02:22:44;100543.19;;;13.44;100.00
73063;BME280;61230;46.328;19.972;2023-05-21T02:25:14;100552.22;;;13.34;100.00
73063;BME280;61230;46.328;19.972;2023-05-21T02:27:42;100547.94;;;13.41;100.00
73063;BME280;61230;46.328;19.972;2023-05-21T02:30:11;100544.81;;;13.45;100.00
73063;BME280;61230;46.328;19.972;2023-05-21T02:32:40;100547.84;;;13.50;100.00
73063;BME280;61230;46.328;19.972;2023-05-21T02:35:12;100500.22;;;13.16;100.00
73063;BME280;61230;46.328;19.972;2023-05-21T02:37:40;100541.34;;;13.37;100.00
73063;BME280;61230;46.328;19.972;2023-05-21T02:40:08;100547.22;;;13.31;100.00
73063;BME280;61230;46.328;19.972;2023-05-21T02:42:39;100549.88;;;13.31;100.00
73063;BME280;61230;46.328;19.972;2023-05-21T02:45:09;100537.94;;;13.27;100.00
73063;BME280;61230;46.328;19.972;2023-05-21T02:47:38;100540.75;;;13.25;100.00
73063;BME280;61230;46.328;19.972;2023-05-21T02:50:07;100495.09;;;12.97;100.00
73063;BME280;61230;46.328;19.972;2023-05-21T02:52:36;100540.75;;;13.25;100.00
73063;BME280;61230;46.328;19.972;2023-05-21T02:55:04;100540.44;;;13.28;100.00
73063;BME280;61230;46.328;19.972;2023-05-21T02:57:32;100539.13;;;13.32;100.00
73063;BME280;61230;46.328;19.972;2023-05-21T03:00:00;100531.56;;;13.37;100.00
73063;BME280;61230;46.328;19.972;2023-05-21T03:02:28;100550.75;;;13.39;100.00
73063;BME280;61230;46.328;19.972;2023-05-21T03:04:56;100541.72;;;13.50;100.00
73063;BME280;61230;46.328;19.972;2023-05-21T03:07:25;100544.59;;;13.56;100.00
73063;BME280;61230;46.328;19.972;2023-05-21T03:09:53;100539.78;;;13.60;100.00
73063;BME280;61230;46.328;19.972;2023-05-21T03:12:21;100541.97;;;13.64;100.00
73063;BME280;61230;46.328;19.972;2023-05-21T03:14:48;100542.47;;;13.68;100.00
73063;BME280;61230;46.328;19.972;2023-05-21T03:17:19;100542.47;;;13.68;100.00
73063;BME280;61230;46.328;19.972;2023-05-21T03:19:47;100506.19;;;13.44;100.00
73063;BME280;61230;46.328;19.972;2023-05-21T03:22:15;100543.31;;;13.68;100.00
73063;BME280;61230;46.328;19.972;2023-05-21T03:24:43;100547.94;;;13.66;100.00
73063;BME280;61230;46.328;19.972;2023-05-21T03:27:11;100549.59;;;13.67;100.00
73063;BME280;61230;46.328;19.972;2023-05-21T03:29:39;100560.97;;;13.68;100.00
73063;BME280;61230;46.328;19.972;2023-05-21T03:32:06;100518.59;;;13.52;100.00
73063;BME280;61230;46.328;19.972;2023-05-21T03:34:35;100555.28;;;13.80;100.00
73063;BME280;61230;46.328;19.972;2023-05-21T03:37:02;100564.03;;;13.81;100.00
73063;BME280;61230;46.328;19.972;2023-05-21T03:39:30;100567.53;;;13.81;100.00
73063;BME280;61230;46.328;19.972;2023-05-21T03:41:58;100523.44;;;13.56;100.00
73063;BME280;61230;46.328;19.972;2023-05-21T03:44:26;100560.66;;;13.71;100.00
73063;BME280;61230;46.328;19.972;2023-05-21T03:46:54;100555.81;;;13.58;100.00
73063;BME280;61230;46.328;19.972;2023-05-21T03:49:23;100562.34;;;13.72;100.00
73063;BME280;61230;46.328;19.972;2023-05-21T03:51:52;100561.22;;;13.82;100.00
73063;BME280;61230;46.328;19.972;2023-05-21T03:54:20;100562.94;;;13.92;100.00
73063;BME280;61230;46.328;19.972;2023-05-21T03:56:48;100513.03;;;13.63;100.00
73063;BME280;61230;46.328;19.972;2023-05-21T03:59:16;100541.03;;;13.73;100.00
73063;BME280;61230;46.328;19.972;2023-05-21T04:01:44;100576.31;;;13.90;100.00
73063;BME280;61230;46.328;19.972;2023-05-21T04:04:12;100577.13;;;13.91;100.00
73063;BME280;61230;46.328;19.972;2023-05-21T04:06:40;100583.94;;;13.93;100.00
73063;BME280;61230;46.328;19.972;2023-05-21T04:09:10;100541.91;;;13.82;100.00
73063;BME280;61230;46.328;19.972;2023-05-21T04:11:38;100585.19;;;14.15;100.00
73063;BME280;61230;46.328;19.972;2023-05-21T04:14:06;100572.50;;;14.26;100.00
73063;BME280;61230;46.328;19.972;2023-05-21T04:16:33;100578.88;;;14.42;100.00
73063;BME280;61230;46.328;19.972;2023-05-21T04:19:03;100582.69;;;14.47;100.00
73063;BME280;61230;46.328;19.972;2023-05-21T04:21:31;100584.53;;;14.63;100.00
73063;BME280;61230;46.328;19.972;2023-05-21T04:23:59;100589.00;;;14.62;100.00
73063;BME280;61230;46.328;19.972;2023-05-21T04:26:27;100590.84;;;14.70;100.00
73063;BME280;61230;46.328;19.972;2023-05-21T04:28:56;100597.97;;;14.77;100.00
73063;BME280;61230;46.328;19.972;2023-05-21T04:31:25;100595.31;;;14.77;100.00
73063;BME280;61230;46.328;19.972;2023-05-21T04:33:53;100596.16;;;14.86;100.00
73063;BME280;61230;46.328;19.972;2023-05-21T04:36:21;100599.00;;;14.92;100.00
73063;BME280;61230;46.328;19.972;2023-05-21T04:38:48;100602.81;;;14.98;100.00
73063;BME280;61230;46.328;19.972;2023-05-21T04:41:16;100599.66;;;15.11;100.00
73063;BME280;61230;46.328;19.972;2023-05-21T04:43:45;100584.75;;;15.18;100.00
73063;BME280;61230;46.328;19.972;2023-05-21T04:46:13;100590.22;;;15.32;100.00
73063;BME280;61230;46.328;19.972;2023-05-21T04:48:41;100605.78;;;15.43;100.00
73063;BME280;61230;46.328;19.972;2023-05-21T04:51:09;100601.16;;;15.53;100.00
73063;BME280;61230;46.328;19.972;2023-05-21T04:53:37;100593.88;;;15.64;100.00
73063;BME280;61230;46.328;19.972;2023-05-21T04:56:05;100589.53;;;15.63;100.00
73063;BME280;61230;46.328;19.972;2023-05-21T04:58:33;100589.19;;;15.74;100.00
73063;BME280;61230;46.328;19.972;2023-05-21T05:01:00;100552.25;;;15.56;100.00
73063;BME280;61230;46.328;19.972;2023-05-21T05:03:30;100587.97;;;15.92;100.00
73063;BME280;61230;46.328;19.972;2023-05-21T05:05:58;100592.41;;;16.08;100.00
73063;BME280;61230;46.328;19.972;2023-05-21T05:08:26;100590.34;;;16.18;100.00
73063;BME280;61230;46.328;19.972;2023-05-21T05:10:54;100589.19;;;16.21;100.00
73063;BME280;61230;46.328;19.972;2023-05-21T05:13:22;100583.66;;;16.30;100.00
73063;BME280;61230;46.328;19.972;2023-05-21T05:15:49;100584.31;;;16.40;100.00
73063;BME280;61230;46.328;19.972;2023-05-21T05:18:21;100539.34;;;16.31;100.00
73063;BME280;61230;46.328;19.972;2023-05-21T05:20:48;100580.34;;;16.67;99.05
73063;BME280;61230;46.328;19.972;2023-05-21T05:23:16;100588.38;;;16.82;99.20
73063;BME280;61230;46.328;19.972;2023-05-21T05:25:44;100550.22;;;16.75;98.04
73063;BME280;61230;46.328;19.972;2023-05-21T05:28:11;100588.44;;;16.96;96.82
73063;BME280;61230;46.328;19.972;2023-05-21T05:30:39;100584.81;;;17.12;96.69
73063;BME280;61230;46.328;19.972;2023-05-21T05:33:08;100557.31;;;17.05;96.59
73063;BME280;61230;46.328;19.972;2023-05-21T05:35:35;100585.63;;;17.35;95.63
73063;BME280;61230;46.328;19.972;2023-05-21T05:38:04;100540.84;;;17.24;94.93
73063;BME280;61230;46.328;19.972;2023-05-21T05:40:32;100579.81;;;17.54;94.24
73063;BME280;61230;46.328;19.972;2023-05-21T05:43:00;100573.03;;;17.81;94.23
73063;BME280;61230;46.328;19.972;2023-05-21T05:45:27;100571.84;;;17.84;91.99
73063;BME280;61230;46.328;19.972;2023-05-21T05:47:55;100573.03;;;17.96;91.24
73063;BME280;61230;46.328;19.972;2023-05-21T05:50:23;100566.88;;;17.95;90.47
73063;BME280;61230;46.328;19.972;2023-05-21T05:52:51;100580.47;;;18.15;89.65
73063;BME280;61230;46.328;19.972;2023-05-21T05:55:19;100573.81;;;18.40;89.29
73063;BME280;61230;46.328;19.972;2023-05-21T05:57:48;100572.22;;;18.46;88.30
73063;BME280;61230;46.328;19.972;2023-05-21T06:00:16;100573.06;;;18.61;87.33
73063;BME280;61230;46.328;19.972;2023-05-21T06:02:44;100568.59;;;18.68;86.28
73063;BME280;61230;46.328;19.972;2023-05-21T06:05:12;100575.47;;;18.77;84.71
73063;BME280;61230;46.328;19.972;2023-05-21T06:07:40;100531.34;;;18.74;85.46
73063;BME280;61230;46.328;19.972;2023-05-21T06:10:09;100574.75;;;19.11;84.87
73063;BME280;61230;46.328;19.972;2023-05-21T06:12:36;100572.22;;;19.03;85.54
73063;BME280;61230;46.328;19.972;2023-05-21T06:15:05;100575.13;;;19.08;84.57
73063;BME280;61230;46.328;19.972;2023-05-21T06:17:33;100568.75;;;19.30;83.68
73063;BME280;61230;46.328;19.972;2023-05-21T06:20:02;100574.16;;;19.36;83.78
73063;BME280;61230;46.328;19.972;2023-05-21T06:22:30;100571.75;;;19.41;82.03
73063;BME280;61230;46.328;19.972;2023-05-21T06:24:58;100572.31;;;19.65;81.52
73063;BME280;61230;46.328;19.972;2023-05-21T06:27:26;100570.09;;;19.68;80.13
73063;BME280;61230;46.328;19.972;2023-05-21T06:29:54;100569.31;;;19.74;80.29
73063;BME280;61230;46.328;19.972;2023-05-21T06:32:23;100571.22;;;19.80;79.18
73063;BME280;61230;46.328;19.972;2023-05-21T06:34:51;100524.28;;;19.65;79.63
73063;BME280;61230;46.328;19.972;2023-05-21T06:37:19;100568.00;;;19.98;79.18
73063;BME280;61230;46.328;19.972;2023-05-21T06:39:48;100559.44;;;20.09;78.28
73063;BME280;61230;46.328;19.972;2023-05-21T06:42:16;100555.56;;;20.18;75.91
73063;BME280;61230;46.328;19.972;2023-05-21T06:44:45;100558.72;;;20.28;76.20
73063;BME280;61230;46.328;19.972;2023-05-21T06:47:13;100556.31;;;20.40;75.52
73063;BME280;61230;46.328;19.972;2023-05-21T06:49:40;100557.81;;;20.62;75.11
73063;BME280;61230;46.328;19.972;2023-05-21T06:52:08;100557.19;;;20.60;75.58
73063;BME280;61230;46.328;19.972;2023-05-21T06:54:36;100519.50;;;20.55;74.96
73063;BME280;61230;46.328;19.972;2023-05-21T06:57:04;100554.53;;;20.73;75.55
73063;BME280;61230;46.328;19.972;2023-05-21T06:59:32;100550.25;;;21.05;74.00
73063;BME280;61230;46.328;19.972;2023-05-21T07:02:00;100509.09;;;20.99;71.88
73063;BME280;61230;46.328;19.972;2023-05-21T07:04:30;100550.69;;;21.28;71.90
73063;BME280;61230;46.328;19.972;2023-05-21T07:06:58;100545.75;;;21.25;69.52
73063;BME280;61230;46.328;19.972;2023-05-21T07:09:26;100505.78;;;21.37;68.79
73063;BME280;61230;46.328;19.972;2023-05-21T07:11:53;100552.25;;;21.75;67.58
73063;BME280;61230;46.328;19.972;2023-05-21T07:14:23;100542.78;;;21.79;68.06
73063;BME280;61230;46.328;19.972;2023-05-21T07:16:51;100544.38;;;22.00;68.28
73063;BME280;61230;46.328;19.972;2023-05-21T07:19:19;100547.84;;;22.13;65.46
73063;BME280;61230;46.328;19.972;2023-05-21T07:21:48;100544.94;;;22.15;64.51
73063;BME280;61230;46.328;19.972;2023-05-21T07:24:16;100542.44;;;22.20;62.62
73063;BME280;61230;46.328;19.972;2023-05-21T07:26:43;100540.03;;;22.05;64.35
73063;BME280;61230;46.328;19.972;2023-05-21T07:29:11;100537.31;;;22.18;64.63
73063;BME280;61230;46.328;19.972;2023-05-21T07:31:39;100533.38;;;22.21;64.45
73063;BME280;61230;46.328;19.972;2023-05-21T07:34:07;100535.00;;;22.66;62.14
73063;BME280;61230;46.328;19.972;2023-05-21T07:36:35;100529.72;;;22.84;61.38
73063;BME280;61230;46.328;19.972;2023-05-21T07:39:03;100494.06;;;22.77;61.23
73063;BME280;61230;46.328;19.972;2023-05-21T07:41:31;100472.88;;;22.69;59.87
73063;BME280;61230;46.328;19.972;2023-05-21T07:43:59;100528.87;;;23.33;60.38
73063;BME280;61230;46.328;19.972;2023-05-21T07:46:28;100535.22;;;23.45;59.46
73063;BME280;61230;46.328;19.972;2023-05-21T07:48:56;100541.16;;;23.48;58.17
73063;BME280;61230;46.328;19.972;2023-05-21T07:51:24;100538.13;;;23.44;57.95
73063;BME280;61230;46.328;19.972;2023-05-21T07:53:53;100535.22;;;23.45;57.43
73063;BME280;61230;46.328;19.972;2023-05-21T07:56:23;100530.09;;;23.37;57.07
73063;BME280;61230;46.328;19.972;2023-05-21T07:58:51;100502.31;;;23.25;56.18
73063;BME280;61230;46.328;19.972;2023-05-21T08:01:20;100528.94;;;23.52;56.85
73063;BME280;61230;46.328;19.972;2023-05-21T08:03:48;100532.53;;;23.45;55.65
73063;BME280;61230;46.328;19.972;2023-05-21T08:06:16;100495.03;;;23.32;57.14
73063;BME280;61230;46.328;19.972;2023-05-21T08:08:44;100502.25;;;23.32;57.08
73063;BME280;61230;46.328;19.972;2023-05-21T08:11:12;100532.56;;;23.64;55.99
73063;BME280;61230;46.328;19.972;2023-05-21T08:13:39;100532.81;;;23.56;55.51
73063;BME280;61230;46.328;19.972;2023-05-21T08:16:08;100530.72;;;23.39;55.97
73063;BME280;61230;46.328;19.972;2023-05-21T08:18:36;100526.28;;;23.52;56.08
73063;BME280;61230;46.328;19.972;2023-05-21T08:21:04;100495.88;;;23.51;54.82
73063;BME280;61230;46.328;19.972;2023-05-21T08:23:32;100524.56;;;23.93;55.26
73063;BME280;61230;46.328;19.972;2023-05-21T08:26:00;100523.88;;;24.16;53.94
73063;BME280;61230;46.328;19.972;2023-05-21T08:28:29;100511.87;;;24.00;53.17
73063;BME280;61230;46.328;19.972;2023-05-21T08:30:58;100513.94;;;23.98;54.01
73063;BME280;61230;46.328;19.972;2023-05-21T08:33:26;100524.56;;;24.41;53.31
73063;BME280;61230;46.328;19.972;2023-05-21T08:35:54;100531.97;;;24.16;52.33
73063;BME280;61230;46.328;19.972;2023-05-21T08:38:22;100527.03;;;24.13;52.74
73063;BME280;61230;46.328;19.972;2023-05-21T08:40:53;100520.31;;;24.52;52.36
73063;BME280;61230;46.328;19.972;2023-05-21T08:43:21;100518.00;;;24.67;52.50
73063;BME280;61230;46.328;19.972;2023-05-21T08:45:53;100519.84;;;24.85;51.68
73063;BME280;61230;46.328;19.972;2023-05-21T08:48:25;100512.72;;;24.72;51.69
73063;BME280;61230;46.328;19.972;2023-05-21T08:50:54;100522.97;;;24.82;51.83
73063;BME280;61230;46.328;19.972;2023-05-21T08:53:22;100518.56;;;24.99;52.23
73063;BME280;61230;46.328;19.972;2023-05-21T08:55:55;100520.22;;;25.23;51.67
73063;BME280;61230;46.328;19.972;2023-05-21T08:58:24;100525.25;;;25.08;50.03
73063;BME280;61230;46.328;19.972;2023-05-21T09:00:53;100525.16;;;24.73;49.68
73063;BME280;61230;46.328;19.972;2023-05-21T09:03:22;100491.06;;;24.97;50.13
73063;BME280;61230;46.328;19.972;2023-05-21T09:05:50;100522.59;;;25.31;49.36
73063;BME280;61230;46.328;19.972;2023-05-21T09:08:24;100494.03;;;24.77;48.68
73063;BME280;61230;46.328;19.972;2023-05-21T09:10:54;100527.38;;;25.06;48.96
73063;BME280;61230;46.328;19.972;2023-05-21T09:13:23;100525.25;;;24.96;49.09
73063;BME280;61230;46.328;19.972;2023-05-21T09:15:51;100516.97;;;25.67;50.12
73063;BME280;61230;46.328;19.972;2023-05-21T09:18:19;100515.41;;;25.71;47.93
73063;BME280;61230;46.328;19.972;2023-05-21T09:20:48;100520.62;;;26.01;48.25
73063;BME280;61230;46.328;19.972;2023-05-21T09:23:16;100516.62;;;26.15;48.12
73063;BME280;61230;46.328;19.972;2023-05-21T09:25:47;100514.50;;;25.54;48.41
73063;BME280;61230;46.328;19.972;2023-05-21T09:28:18;100515.88;;;25.68;48.25
73063;BME280;61230;46.328;19.972;2023-05-21T09:30:47;100510.00;;;25.83;48.36
73063;BME280;61230;46.328;19.972;2023-05-21T09:33:25;100513.97;;;25.92;48.33
73063;BME280;61230;46.328;19.972;2023-05-21T09:35:54;100513.84;;;25.99;45.84
73063;BME280;61230;46.328;19.972;2023-05-21T09:38:22;100510.97;;;26.17;46.02
73063;BME280;61230;46.328;19.972;2023-05-21T09:40:50;100513.38;;;26.02;46.76
73063;BME280;61230;46.328;19.972;2023-05-21T09:43:21;100515.81;;;26.03;46.72
73063;BME280;61230;46.328;19.972;2023-05-21T09:45:51;100505.22;;;26.25;46.77
73063;BME280;61230;46.328;19.972;2023-05-21T09:48:39;100513.31;;;26.13;46.17
73063;BME280;61230;46.328;19.972;2023-05-21T09:51:18;100522.72;;;26.51;46.24
73063;BME280;61230;46.328;19.972;2023-05-21T09:53:48;100506.13;;;26.59;45.63
73063;BME280;61230;46.328;19.972;2023-05-21T09:56:19;100511.06;;;26.95;46.03
73063;BME280;61230;46.328;19.972;2023-05-21T09:58:56;100495.50;;;27.02;45.49
73063;BME280;61230;46.328;19.972;2023-05-21T10:01:25;100470.09;;;26.81;45.35
73063;BME280;61230;46.328;19.972;2023-05-21T10:03:55;100499.59;;;27.21;43.99
73063;BME280;61230;46.328;19.972;2023-05-21T10:06:26;100495.69;;;26.79;43.61
73063;BME280;61230;46.328;19.972;2023-05-21T10:08:55;100489.06;;;26.87;43.38
73063;BME280;61230;46.328;19.972;2023-05-21T10:11:30;100496.94;;;26.76;44.06
73063;BME280;61230;46.328;19.972;2023-05-21T10:14:10;100456.50;;;26.93;45.19
73063;BME280;61230;46.328;19.972;2023-05-21T10:16:41;100493.03;;;27.34;45.11
73063;BME280;61230;46.328;19.972;2023-05-21T10:19:10;100488.31;;;27.41;44.50
73063;BME280;61230;46.328;19.972;2023-05-21T10:21:39;100493.38;;;27.21;42.79
73063;BME280;61230;46.328;19.972;2023-05-21T10:24:08;100456.22;;;26.95;43.46
73063;BME280;61230;46.328;19.972;2023-05-21T10:26:37;100495.66;;;27.46;43.37
73063;BME280;61230;46.328;19.972;2023-05-21T10:29:06;100492.47;;;27.70;43.22
73063;BME280;61230;46.328;19.972;2023-05-21T10:31:34;100489.72;;;28.09;43.68
73063;BME280;61230;46.328;19.972;2023-05-21T10:34:03;100486.06;;;28.20;42.20
73063;BME280;61230;46.328;19.972;2023-05-21T10:36:33;100463.31;;;27.99;42.87
73063;BME280;61230;46.328;19.972;2023-05-21T10:39:03;100485.19;;;28.41;42.78
73063;BME280;61230;46.328;19.972;2023-05-21T10:41:37;100482.56;;;28.24;42.82
73063;BME280;61230;46.328;19.972;2023-05-21T10:44:36;100485.81;;;28.48;41.61
73063;BME280;61230;46.328;19.972;2023-05-21T10:56:19;100442.25;;;28.23;40.65
73063;BME280;61230;46.328;19.972;2023-05-21T10:58:46;100443.97;;;28.34;39.56
73063;BME280;61230;46.328;19.972;2023-05-21T11:01:18;100463.44;;;28.58;40.75
73063;BME280;61230;46.328;19.972;2023-05-21T11:03:46;100459.66;;;28.95;41.42
73063;BME280;61230;46.328;19.972;2023-05-21T11:06:22;100459.25;;;29.14;39.30
73063;BME280;61230;46.328;19.972;2023-05-21T11:08:52;100452.19;;;29.13;38.33
73063;BME280;61230;46.328;19.972;2023-05-21T11:14:34;100462.91;;;28.07;38.65
73063;BME280;61230;46.328;19.972;2023-05-21T11:17:09;100455.28;;;28.58;38.83
73063;BME280;61230;46.328;19.972;2023-05-21T11:19:43;100454.13;;;28.48;39.37
73063;BME280;61230;46.328;19.972;2023-05-21T11:22:24;100456.28;;;28.20;39.81
73063;BME280;61230;46.328;19.972;2023-05-21T11:24:54;100446.87;;;28.86;38.22
73063;BME280;61230;46.328;19.972;2023-05-21T11:27:40;100448.78;;;29.22;39.07
73063;BME280;61230;46.328;19.972;2023-05-21T11:30:14;100450.00;;;29.09;37.04
73063;BME280;61230;46.328;19.972;2023-05-21T11:38:16;100451.31;;;28.38;38.40
73063;BME280;61230;46.328;19.972;2023-05-21T11:40:51;100435.56;;;28.04;37.90
73063;BME280;61230;46.328;19.972;2023-05-21T11:43:22;100442.03;;;28.29;38.31
73063;BME280;61230;46.328;19.972;2023-05-21T11:45:51;100437.16;;;28.95;37.45
73063;BME280;61230;46.328;19.972;2023-05-21T11:48:25;100428.94;;;29.22;36.97
73063;BME280;61230;46.328;19.972;2023-05-21T11:50:56;100428.47;;;29.30;37.38
73063;BME280;61230;46.328;19.972;2023-05-21T11:53:24;100394.38;;;28.92;36.88
73063;BME280;61230;46.328;19.972;2023-05-21T11:55:51;100396.13;;;29.18;37.18
73063;BME280;61230;46.328;19.972;2023-05-21T11:58:24;100386.63;;;29.16;36.44
73063;BME280;61230;46.328;19.972;2023-05-21T12:00:52;100428.50;;;29.35;36.06
73063;BME280;61230;46.328;19.972;2023-05-21T12:03:21;100417.31;;;28.84;35.81
73063;BME280;61230;46.328;19.972;2023-05-21T12:05:53;100424.53;;;29.05;35.77
73063;BME280;61230;46.328;19.972;2023-05-21T12:08:22;100417.38;;;29.31;35.69
73063;BME280;61230;46.328;19.972;2023-05-21T12:10:57;100412.59;;;29.48;33.98
73063;BME280;61230;46.328;19.972;2023-05-21T12:13:27;100410.81;;;28.80;31.52
73063;BME280;61230;46.328;19.972;2023-05-21T12:15:54;100410.53;;;27.70;32.88
73063;BME280;61230;46.328;19.972;2023-05-21T12:18:22;100400.22;;;28.47;32.51
73063;BME280;61230;46.328;19.972;2023-05-21T12:20:50;100403.63;;;29.01;32.32
73063;BME280;61230;46.328;19.972;2023-05-21T12:23:27;100396.84;;;29.45;32.27
73063;BME280;61230;46.328;19.972;2023-05-21T12:25:57;100388.19;;;29.58;33.59
73063;BME280;61230;46.328;19.972;2023-05-21T12:28:26;100385.19;;;29.55;31.80
73063;BME280;61230;46.328;19.972;2023-05-21T12:30:53;100386.75;;;28.89;32.64
73063;BME280;61230;46.328;19.972;2023-05-21T12:33:21;100391.41;;;28.98;32.04
73063;BME280;61230;46.328;19.972;2023-05-21T12:35:52;100375.06;;;28.15;33.02
73063;BME280;61230;46.328;19.972;2023-05-21T12:38:20;100385.00;;;27.61;34.90
73063;BME280;61230;46.328;19.972;2023-05-21T12:40:48;100373.31;;;28.35;33.47
73063;BME280;61230;46.328;19.972;2023-05-21T12:43:15;100338.91;;;28.31;33.39
73063;BME280;61230;46.328;19.972;2023-05-21T12:45:43;100370.62;;;28.35;32.68
73063;BME280;61230;46.328;19.972;2023-05-21T12:48:11;100361.78;;;28.50;32.48
73063;BME280;61230;46.328;19.972;2023-05-21T12:50:39;100365.44;;;28.29;33.14
73063;BME280;61230;46.328;19.972;2023-05-21T12:53:08;100351.47;;;28.47;33.05
73063;BME280;61230;46.328;19.972;2023-05-21T12:55:36;100316.72;;;28.66;32.95
73063;BME280;61230;46.328;19.972;2023-05-21T12:58:05;100350.47;;;28.95;33.26
73063;BME280;61230;46.328;19.972;2023-05-21T13:00:35;100354.28;;;28.94;31.08
73063;BME280;61230;46.328;19.972;2023-05-21T13:03:03;100350.13;;;29.23;30.74
73063;BME280;61230;46.328;19.972;2023-05-21T13:05:33;100348.84;;;28.52;28.35
73063;BME280;61230;46.328;19.972;2023-05-21T13:08:01;100315.84;;;28.60;30.44